sensor_id;sensor_type;location;lat;lon;timestamp;P1;durP1;ratioP1;P2;durP2;ratioP2
43801;SDS011;29429;51.074;13.764;2022-11-15T00:02:19;86.30;;;44.78;;
43801;SDS011;29429;51.074;13.764;2022-11-15T00:05:05;84.05;;;42.35;;
43801;SDS011;29429;51.074;13.764;2022-11-15T00:07:51;82.00;;;44.30;;
43801;SDS011;29429;51.074;13.764;2022-11-15T00:10:40;90.88;;;46.03;;
43801;SDS011;29429;51.074;13.764;2022-11-15T00:13:26;92.68;;;45.88;;
43801;SDS011;29429;51.074;13.764;2022-11-15T00:16:13;97.03;;;46.88;;
43801;SDS011;29429;51.074;13.764;2022-11-15T00:21:44;94.20;;;44.75;;
43801;SDS011;29429;51.074;13.764;2022-11-15T00:24:29;92.50;;;46.53;;
43801;SDS011;29429;51.074;13.764;2022-11-15T00:27:15;97.40;;;46.92;;
43801;SDS011;29429;51.074;13.764;2022-11-15T00:30:00;96.15;;;46.03;;
43801;SDS011;29429;51.074;13.764;2022-11-15T00:32:46;89.55;;;45.90;;
43801;SDS011;29429;51.074;13.764;2022-11-15T00:38:18;89.18;;;44.13;;
43801;SDS011;29429;51.074;13.764;2022-11-15T00:41:04;105.88;;;50.60;;
43801;SDS011;29429;51.074;13.764;2022-11-15T00:43:54;99.53;;;49.45;;
43801;SDS011;29429;51.074;13.764;2022-11-15T00:46:39;96.90;;;47.38;;
43801;SDS011;29429;51.074;13.764;2022-11-15T00:52:10;98.57;;;46.47;;
43801;SDS011;29429;51.074;13.764;2022-11-15T00:54:56;98.63;;;50.00;;
43801;SDS011;29429;51.074;13.764;2022-11-15T00:57:41;89.00;;;45.33;;
43801;SDS011;29429;51.074;13.764;2022-11-15T01:00:28;103.32;;;47.92;;
43801;SDS011;29429;51.074;13.764;2022-11-15T01:05:59;102.80;;;49.42;;
43801;SDS011;29429;51.074;13.764;2022-11-15T01:08:45;107.50;;;49.63;;
43801;SDS011;29429;51.074;13.764;2022-11-15T01:11:31;89.65;;;44.70;;
43801;SDS011;29429;51.074;13.764;2022-11-15T01:17:08;100.30;;;47.50;;
43801;SDS011;29429;51.074;13.764;2022-11-15T01:19:53;105.10;;;48.50;;
43801;SDS011;29429;51.074;13.764;2022-11-15T01:22:39;99.82;;;46.17;;
43801;SDS011;29429;51.074;13.764;2022-11-15T01:28:10;95.60;;;45.23;;
43801;SDS011;29429;51.074;13.764;2022-11-15T01:30:57;83.45;;;42.10;;
43801;SDS011;29429;51.074;13.764;2022-11-15T01:33:47;93.13;;;44.25;;
43801;SDS011;29429;51.074;13.764;2022-11-15T01:36:33;97.82;;;45.38;;
43801;SDS011;29429;51.074;13.764;2022-11-15T01:42:04;102.20;;;46.05;;
43801;SDS011;29429;51.074;13.764;2022-11-15T01:44:50;96.93;;;43.75;;
43801;SDS011;29429;51.074;13.764;2022-11-15T01:47:38;101.47;;;46.38;;
43801;SDS011;29429;51.074;13.764;2022-11-15T01:50:30;95.97;;;43.70;;
43801;SDS011;29429;51.074;13.764;2022-11-15T01:53:17;99.18;;;44.50;;
43801;SDS011;29429;51.074;13.764;2022-11-15T01:56:09;107.20;;;46.67;;
43801;SDS011;29429;51.074;13.764;2022-11-15T01:59:02;95.75;;;45.83;;
43801;SDS011;29429;51.074;13.764;2022-11-15T02:01:51;109.15;;;46.65;;
43801;SDS011;29429;51.074;13.764;2022-11-15T02:04:41;108.38;;;47.35;;
43801;SDS011;29429;51.074;13.764;2022-11-15T02:07:30;95.53;;;46.38;;
43801;SDS011;29429;51.074;13.764;2022-11-15T02:10:18;94.63;;;45.20;;
43801;SDS011;29429;51.074;13.764;2022-11-15T02:13:08;97.05;;;44.90;;
43801;SDS011;29429;51.074;13.764;2022-11-15T02:16:03;103.93;;;46.22;;
43801;SDS011;29429;51.074;13.764;2022-11-15T02:19:27;105.88;;;47.17;;
43801;SDS011;29429;51.074;13.764;2022-11-15T02:33:07;104.15;;;45.30;;
43801;SDS011;29429;51.074;13.764;2022-11-15T02:36:20;92.93;;;43.88;;
43801;SDS011;29429;51.074;13.764;2022-11-15T02:39:27;89.78;;;41.78;;
43801;SDS011;29429;51.074;13.764;2022-11-15T02:42:30;90.20;;;42.92;;
43801;SDS011;29429;51.074;13.764;2022-11-15T02:46:19;93.20;;;42.67;;
43801;SDS011;29429;51.074;13.764;2022-11-15T02:52:39;88.05;;;40.30;;
43801;SDS011;29429;51.074;13.764;2022-11-15T02:55:28;83.32;;;39.47;;
43801;SDS011;29429;51.074;13.764;2022-11-15T03:04:56;80.78;;;38.88;;
43801;SDS011;29429;51.074;13.764;2022-11-15T03:08:12;71.30;;;34.92;;
43801;SDS011;29429;51.074;13.764;2022-11-15T03:11:36;73.18;;;36.15;;
43801;SDS011;29429;51.074;13.764;2022-11-15T03:14:30;76.78;;;39.10;;
43801;SDS011;29429;51.074;13.764;2022-11-15T03:17:26;86.38;;;39.22;;
43801;SDS011;29429;51.074;13.764;2022-11-15T03:20:20;80.70;;;38.63;;
43801;SDS011;29429;51.074;13.764;2022-11-15T03:23:08;76.63;;;36.50;;
43801;SDS011;29429;51.074;13.764;2022-11-15T03:25:55;85.80;;;37.53;;
43801;SDS011;29429;51.074;13.764;2022-11-15T03:28:52;82.18;;;38.42;;
43801;SDS011;29429;51.074;13.764;2022-11-15T03:31:44;79.68;;;37.40;;
43801;SDS011;29429;51.074;13.764;2022-11-15T03:37:48;73.38;;;33.63;;
43801;SDS011;29429;51.074;13.764;2022-11-15T03:41:00;70.43;;;34.30;;
43801;SDS011;29429;51.074;13.764;2022-11-15T03:43:52;70.68;;;34.17;;
43801;SDS011;29429;51.074;13.764;2022-11-15T03:47:00;68.68;;;33.35;;
43801;SDS011;29429;51.074;13.764;2022-11-15T03:50:12;61.17;;;30.77;;
43801;SDS011;29429;51.074;13.764;2022-11-15T03:53:05;68.93;;;32.72;;
43801;SDS011;29429;51.074;13.764;2022-11-15T03:55:51;63.80;;;33.50;;
43801;SDS011;29429;51.074;13.764;2022-11-15T03:58:37;66.18;;;33.22;;
43801;SDS011;29429;51.074;13.764;2022-11-15T04:04:08;61.13;;;30.10;;
43801;SDS011;29429;51.074;13.764;2022-11-15T04:06:54;69.82;;;33.53;;
43801;SDS011;29429;51.074;13.764;2022-11-15T04:09:40;72.43;;;33.95;;
43801;SDS011;29429;51.074;13.764;2022-11-15T04:12:46;68.00;;;33.00;;
43801;SDS011;29429;51.074;13.764;2022-11-15T04:15:32;73.80;;;34.30;;
43801;SDS011;29429;51.074;13.764;2022-11-15T04:18:18;70.15;;;33.97;;
43801;SDS011;29429;51.074;13.764;2022-11-15T04:21:03;69.97;;;33.75;;
43801;SDS011;29429;51.074;13.764;2022-11-15T04:24:08;63.85;;;30.58;;
43801;SDS011;29429;51.074;13.764;2022-11-15T04:26:59;70.40;;;31.92;;
43801;SDS011;29429;51.074;13.764;2022-11-15T04:29:44;62.00;;;31.02;;
43801;SDS011;29429;51.074;13.764;2022-11-15T04:32:30;68.47;;;33.67;;
43801;SDS011;29429;51.074;13.764;2022-11-15T04:38:01;70.40;;;31.77;;
43801;SDS011;29429;51.074;13.764;2022-11-15T04:40:49;63.65;;;28.67;;
43801;SDS011;29429;51.074;13.764;2022-11-15T04:43:35;70.28;;;33.42;;
43801;SDS011;29429;51.074;13.764;2022-11-15T04:46:20;67.65;;;32.03;;
43801;SDS011;29429;51.074;13.764;2022-11-15T04:49:07;62.33;;;31.50;;
43801;SDS011;29429;51.074;13.764;2022-11-15T04:51:52;63.08;;;30.65;;
43801;SDS011;29429;51.074;13.764;2022-11-15T04:54:38;57.47;;;29.75;;
43801;SDS011;29429;51.074;13.764;2022-11-15T04:57:23;69.22;;;32.97;;
43801;SDS011;29429;51.074;13.764;2022-11-15T05:02:58;58.22;;;27.92;;
43801;SDS011;29429;51.074;13.764;2022-11-15T05:06:03;57.38;;;29.98;;
43801;SDS011;29429;51.074;13.764;2022-11-15T05:08:49;62.40;;;28.45;;
43801;SDS011;29429;51.074;13.764;2022-11-15T05:14:20;59.50;;;29.83;;
43801;SDS011;29429;51.074;13.764;2022-11-15T05:17:06;61.63;;;30.63;;
43801;SDS011;29429;51.074;13.764;2022-11-15T05:22:37;57.75;;;28.50;;
43801;SDS011;29429;51.074;13.764;2022-11-15T05:25:23;49.63;;;26.92;;
43801;SDS011;29429;51.074;13.764;2022-11-15T05:28:10;52.20;;;28.73;;
43801;SDS011;29429;51.074;13.764;2022-11-15T05:35:46;58.67;;;28.20;;
43801;SDS011;29429;51.074;13.764;2022-11-15T05:38:58;55.45;;;27.63;;
43801;SDS011;29429;51.074;13.764;2022-11-15T05:41:46;51.22;;;25.92;;
43801;SDS011;29429;51.074;13.764;2022-11-15T05:44:40;54.45;;;27.13;;
43801;SDS011;29429;51.074;13.764;2022-11-15T05:47:33;51.88;;;26.55;;
43801;SDS011;29429;51.074;13.764;2022-11-15T05:50:22;54.72;;;27.63;;
43801;SDS011;29429;51.074;13.764;2022-11-15T05:53:08;57.17;;;28.48;;
43801;SDS011;29429;51.074;13.764;2022-11-15T05:55:59;56.78;;;26.83;;
43801;SDS011;29429;51.074;13.764;2022-11-15T05:58:45;53.40;;;27.02;;
43801;SDS011;29429;51.074;13.764;2022-11-15T06:01:31;58.05;;;26.63;;
43801;SDS011;29429;51.074;13.764;2022-11-15T06:04:16;50.38;;;24.77;;
43801;SDS011;29429;51.074;13.764;2022-11-15T06:07:02;48.88;;;25.52;;
43801;SDS011;29429;51.074;13.764;2022-11-15T06:09:48;51.53;;;24.95;;
43801;SDS011;29429;51.074;13.764;2022-11-15T06:12:34;53.35;;;25.85;;
43801;SDS011;29429;51.074;13.764;2022-11-15T06:15:19;50.88;;;26.73;;
43801;SDS011;29429;51.074;13.764;2022-11-15T06:18:05;51.80;;;24.92;;
43801;SDS011;29429;51.074;13.764;2022-11-15T06:20:50;54.55;;;26.80;;
43801;SDS011;29429;51.074;13.764;2022-11-15T06:23:36;48.58;;;25.58;;
43801;SDS011;29429;51.074;13.764;2022-11-15T06:26:21;51.30;;;26.08;;
43801;SDS011;29429;51.074;13.764;2022-11-15T06:31:53;58.65;;;26.95;;
43801;SDS011;29429;51.074;13.764;2022-11-15T06:34:38;56.65;;;27.25;;
43801;SDS011;29429;51.074;13.764;2022-11-15T06:37:24;55.28;;;26.42;;
43801;SDS011;29429;51.074;13.764;2022-11-15T06:40:10;63.25;;;29.15;;
43801;SDS011;29429;51.074;13.764;2022-11-15T06:42:59;59.47;;;28.52;;
43801;SDS011;29429;51.074;13.764;2022-11-15T06:45:52;61.88;;;29.17;;
43801;SDS011;29429;51.074;13.764;2022-11-15T06:48:38;54.38;;;26.77;;
43801;SDS011;29429;51.074;13.764;2022-11-15T06:51:24;63.20;;;29.55;;
43801;SDS011;29429;51.074;13.764;2022-11-15T06:54:15;61.97;;;28.10;;
43801;SDS011;29429;51.074;13.764;2022-11-15T06:57:06;66.03;;;29.65;;
43801;SDS011;29429;51.074;13.764;2022-11-15T06:59:51;59.05;;;29.77;;
43801;SDS011;29429;51.074;13.764;2022-11-15T07:02:37;56.08;;;27.77;;
43801;SDS011;29429;51.074;13.764;2022-11-15T07:05:23;57.38;;;27.77;;
43801;SDS011;29429;51.074;13.764;2022-11-15T07:08:08;58.90;;;28.42;;
43801;SDS011;29429;51.074;13.764;2022-11-15T07:10:55;53.88;;;26.05;;
43801;SDS011;29429;51.074;13.764;2022-11-15T07:13:45;57.10;;;26.83;;
43801;SDS011;29429;51.074;13.764;2022-11-15T07:16:34;55.95;;;27.75;;
43801;SDS011;29429;51.074;13.764;2022-11-15T07:19:28;54.78;;;26.15;;
43801;SDS011;29429;51.074;13.764;2022-11-15T07:22:27;48.88;;;25.65;;
43801;SDS011;29429;51.074;13.764;2022-11-15T07:31:09;56.85;;;28.80;;
43801;SDS011;29429;51.074;13.764;2022-11-15T07:33:56;57.25;;;28.52;;
43801;SDS011;29429;51.074;13.764;2022-11-15T07:36:41;58.78;;;28.60;;
43801;SDS011;29429;51.074;13.764;2022-11-15T07:39:27;58.65;;;28.00;;
43801;SDS011;29429;51.074;13.764;2022-11-15T07:42:13;59.72;;;30.48;;
43801;SDS011;29429;51.074;13.764;2022-11-15T07:45:18;59.15;;;28.98;;
43801;SDS011;29429;51.074;13.764;2022-11-15T07:48:05;57.35;;;28.48;;
43801;SDS011;29429;51.074;13.764;2022-11-15T07:50:51;57.65;;;29.08;;
43801;SDS011;29429;51.074;13.764;2022-11-15T07:53:39;62.83;;;31.60;;
43801;SDS011;29429;51.074;13.764;2022-11-15T07:56:26;56.22;;;28.08;;
43801;SDS011;29429;51.074;13.764;2022-11-15T07:59:12;60.38;;;31.15;;
43801;SDS011;29429;51.074;13.764;2022-11-15T08:01:58;53.25;;;28.08;;
43801;SDS011;29429;51.074;13.764;2022-11-15T08:04:54;50.17;;;26.10;;
43801;SDS011;29429;51.074;13.764;2022-11-15T08:07:40;49.08;;;25.92;;
43801;SDS011;29429;51.074;13.764;2022-11-15T08:10:25;47.88;;;25.00;;
43801;SDS011;29429;51.074;13.764;2022-11-15T08:13:12;49.97;;;24.77;;
43801;SDS011;29429;51.074;13.764;2022-11-15T08:15:59;51.60;;;27.02;;
43801;SDS011;29429;51.074;13.764;2022-11-15T08:18:50;46.92;;;25.42;;
43801;SDS011;29429;51.074;13.764;2022-11-15T08:21:35;43.28;;;24.20;;
43801;SDS011;29429;51.074;13.764;2022-11-15T08:24:24;44.28;;;24.08;;
43801;SDS011;29429;51.074;13.764;2022-11-15T08:27:13;40.88;;;24.02;;
43801;SDS011;29429;51.074;13.764;2022-11-15T08:30:02;40.50;;;22.98;;
43801;SDS011;29429;51.074;13.764;2022-11-15T08:32:48;38.10;;;22.92;;
43801;SDS011;29429;51.074;13.764;2022-11-15T08:35:35;37.67;;;21.77;;
43801;SDS011;29429;51.074;13.764;2022-11-15T08:38:20;38.22;;;21.33;;
43801;SDS011;29429;51.074;13.764;2022-11-15T08:43:52;33.97;;;20.08;;
43801;SDS011;29429;51.074;13.764;2022-11-15T08:46:39;35.70;;;20.98;;
43801;SDS011;29429;51.074;13.764;2022-11-15T08:49:31;32.28;;;19.73;;
43801;SDS011;29429;51.074;13.764;2022-11-15T08:52:17;32.97;;;19.23;;
43801;SDS011;29429;51.074;13.764;2022-11-15T08:55:06;33.90;;;20.38;;
43801;SDS011;29429;51.074;13.764;2022-11-15T08:57:56;32.75;;;19.10;;
43801;SDS011;29429;51.074;13.764;2022-11-15T09:00:47;33.47;;;20.17;;
43801;SDS011;29429;51.074;13.764;2022-11-15T09:06:21;31.33;;;19.02;;
43801;SDS011;29429;51.074;13.764;2022-11-15T09:09:36;33.28;;;19.05;;
43801;SDS011;29429;51.074;13.764;2022-11-15T09:16:14;34.88;;;20.35;;
43801;SDS011;29429;51.074;13.764;2022-11-15T09:19:15;31.35;;;18.88;;
43801;SDS011;29429;51.074;13.764;2022-11-15T09:22:08;31.15;;;19.17;;
43801;SDS011;29429;51.074;13.764;2022-11-15T09:24:53;33.70;;;20.23;;
43801;SDS011;29429;51.074;13.764;2022-11-15T09:27:40;36.90;;;20.35;;
43801;SDS011;29429;51.074;13.764;2022-11-15T09:30:25;34.58;;;20.33;;
43801;SDS011;29429;51.074;13.764;2022-11-15T09:33:24;30.00;;;18.10;;
43801;SDS011;29429;51.074;13.764;2022-11-15T09:36:10;32.00;;;18.55;;
43801;SDS011;29429;51.074;13.764;2022-11-15T09:38:57;28.10;;;17.63;;
43801;SDS011;29429;51.074;13.764;2022-11-15T09:51:49;31.85;;;18.63;;
43801;SDS011;29429;51.074;13.764;2022-11-15T09:54:25;28.95;;;17.15;;
43801;SDS011;29429;51.074;13.764;2022-11-15T10:05:25;26.23;;;17.63;;
43801;SDS011;29429;51.074;13.764;2022-11-15T10:10:38;28.83;;;17.30;;
43801;SDS011;29429;51.074;13.764;2022-11-15T10:14:30;29.15;;;16.27;;
43801;SDS011;29429;51.074;13.764;2022-11-15T10:19:24;29.35;;;16.80;;
43801;SDS011;29429;51.074;13.764;2022-11-15T10:24:06;29.73;;;16.58;;
43801;SDS011;29429;51.074;13.764;2022-11-15T10:26:57;24.15;;;15.48;;
43801;SDS011;29429;51.074;13.764;2022-11-15T10:29:24;24.05;;;15.38;;
43801;SDS011;29429;51.074;13.764;2022-11-15T10:31:52;24.65;;;16.35;;
43801;SDS011;29429;51.074;13.764;2022-11-15T10:34:23;24.80;;;16.10;;
43801;SDS011;29429;51.074;13.764;2022-11-15T10:36:58;24.75;;;15.48;;
43801;SDS011;29429;51.074;13.764;2022-11-15T10:39:28;23.45;;;15.52;;
43801;SDS011;29429;51.074;13.764;2022-11-15T10:41:56;26.45;;;16.02;;
43801;SDS011;29429;51.074;13.764;2022-11-15T10:44:41;23.58;;;15.10;;
43801;SDS011;29429;51.074;13.764;2022-11-15T10:47:23;25.83;;;15.93;;
43801;SDS011;29429;51.074;13.764;2022-11-15T10:50:04;26.90;;;15.82;;
43801;SDS011;29429;51.074;13.764;2022-11-15T10:52:54;28.13;;;17.27;;
43801;SDS011;29429;51.074;13.764;2022-11-15T10:55:26;22.77;;;14.95;;
43801;SDS011;29429;51.074;13.764;2022-11-15T10:58:03;21.95;;;14.45;;
43801;SDS011;29429;51.074;13.764;2022-11-15T11:00:46;27.10;;;15.75;;
43801;SDS011;29429;51.074;13.764;2022-11-15T11:06:16;26.25;;;16.98;;
43801;SDS011;29429;51.074;13.764;2022-11-15T11:09:03;24.02;;;14.75;;
43801;SDS011;29429;51.074;13.764;2022-11-15T11:11:48;25.90;;;16.10;;
43801;SDS011;29429;51.074;13.764;2022-11-15T11:14:26;26.95;;;16.65;;
43801;SDS011;29429;51.074;13.764;2022-11-15T11:23:03;24.13;;;15.68;;
43801;SDS011;29429;51.074;13.764;2022-11-15T11:31:49;24.25;;;14.85;;
43801;SDS011;29429;51.074;13.764;2022-11-15T11:37:47;22.73;;;14.73;;
43801;SDS011;29429;51.074;13.764;2022-11-15T11:40:43;23.08;;;14.18;;
43801;SDS011;29429;51.074;13.764;2022-11-15T11:49:41;23.50;;;15.50;;
43801;SDS011;29429;51.074;13.764;2022-11-15T11:52:33;21.92;;;13.98;;
43801;SDS011;29429;51.074;13.764;2022-11-15T11:58:17;22.58;;;13.95;;
43801;SDS011;29429;51.074;13.764;2022-11-15T12:03:48;20.80;;;14.25;;
43801;SDS011;29429;51.074;13.764;2022-11-15T12:06:24;22.27;;;13.57;;
43801;SDS011;29429;51.074;13.764;2022-11-15T12:09:10;26.45;;;15.25;;
43801;SDS011;29429;51.074;13.764;2022-11-15T12:12:09;21.80;;;14.43;;
43801;SDS011;29429;51.074;13.764;2022-11-15T12:14:59;25.25;;;15.63;;
43801;SDS011;29429;51.074;13.764;2022-11-15T12:17:37;24.73;;;14.35;;
43801;SDS011;29429;51.074;13.764;2022-11-15T12:20:17;23.33;;;15.55;;
43801;SDS011;29429;51.074;13.764;2022-11-15T12:22:58;24.20;;;15.10;;
43801;SDS011;29429;51.074;13.764;2022-11-15T12:25:48;26.90;;;15.40;;
43801;SDS011;29429;51.074;13.764;2022-11-15T12:31:43;23.20;;;13.95;;
43801;SDS011;29429;51.074;13.764;2022-11-15T12:43:44;21.52;;;13.65;;
43801;SDS011;29429;51.074;13.764;2022-11-15T12:46:22;19.80;;;13.60;;
43801;SDS011;29429;51.074;13.764;2022-11-15T12:49:02;26.08;;;14.90;;
43801;SDS011;29429;51.074;13.764;2022-11-15T13:02:40;24.23;;;14.20;;
43801;SDS011;29429;51.074;13.764;2022-11-15T13:07:56;19.30;;;12.80;;
43801;SDS011;29429;51.074;13.764;2022-11-15T13:10:39;21.45;;;13.43;;
43801;SDS011;29429;51.074;13.764;2022-11-15T13:13:15;23.20;;;15.27;;
43801;SDS011;29429;51.074;13.764;2022-11-15T13:16:11;25.85;;;13.85;;
43801;SDS011;29429;51.074;13.764;2022-11-15T13:18:53;21.33;;;14.02;;
43801;SDS011;29429;51.074;13.764;2022-11-15T13:21:22;20.98;;;13.25;;
43801;SDS011;29429;51.074;13.764;2022-11-15T13:24:12;20.88;;;12.38;;
43801;SDS011;29429;51.074;13.764;2022-11-15T13:26:43;19.83;;;13.35;;
43801;SDS011;29429;51.074;13.764;2022-11-15T13:29:47;20.48;;;13.57;;
43801;SDS011;29429;51.074;13.764;2022-11-15T13:32:15;22.00;;;13.68;;
43801;SDS011;29429;51.074;13.764;2022-11-15T13:34:43;20.80;;;12.73;;
43801;SDS011;29429;51.074;13.764;2022-11-15T13:39:48;22.38;;;13.10;;
43801;SDS011;29429;51.074;13.764;2022-11-15T13:42:16;21.98;;;13.95;;
43801;SDS011;29429;51.074;13.764;2022-11-15T13:47:40;25.00;;;14.80;;
43801;SDS011;29429;51.074;13.764;2022-11-15T13:50:11;23.30;;;15.25;;
43801;SDS011;29429;51.074;13.764;2022-11-15T13:52:40;23.95;;;13.65;;
43801;SDS011;29429;51.074;13.764;2022-11-15T13:55:16;21.83;;;14.65;;
43801;SDS011;29429;51.074;13.764;2022-11-15T13:57:59;23.08;;;14.27;;
43801;SDS011;29429;51.074;13.764;2022-11-15T14:06:16;22.63;;;14.07;;
43801;SDS011;29429;51.074;13.764;2022-11-15T14:11:35;25.27;;;14.32;;
43801;SDS011;29429;51.074;13.764;2022-11-15T14:14:08;25.60;;;15.05;;
43801;SDS011;29429;51.074;13.764;2022-11-15T14:16:45;24.38;;;14.68;;
43801;SDS011;29429;51.074;13.764;2022-11-15T14:22:12;26.92;;;15.38;;
43801;SDS011;29429;51.074;13.764;2022-11-15T14:24:45;25.17;;;15.40;;
43801;SDS011;29429;51.074;13.764;2022-11-15T14:31:10;25.25;;;15.13;;
43801;SDS011;29429;51.074;13.764;2022-11-15T14:34:38;28.15;;;15.82;;
43801;SDS011;29429;51.074;13.764;2022-11-15T14:37:05;23.60;;;14.77;;
43801;SDS011;29429;51.074;13.764;2022-11-15T14:40:05;22.10;;;13.93;;
43801;SDS011;29429;51.074;13.764;2022-11-15T14:42:35;23.67;;;14.13;;
43801;SDS011;29429;51.074;13.764;2022-11-15T14:45:02;27.70;;;16.88;;
43801;SDS011;29429;51.074;13.764;2022-11-15T14:47:38;27.35;;;15.82;;
43801;SDS011;29429;51.074;13.764;2022-11-15T14:50:11;28.83;;;17.58;;
43801;SDS011;29429;51.074;13.764;2022-11-15T14:52:40;25.75;;;16.40;;
43801;SDS011;29429;51.074;13.764;2022-11-15T14:55:12;26.95;;;16.10;;
43801;SDS011;29429;51.074;13.764;2022-11-15T14:57:50;24.75;;;15.45;;
43801;SDS011;29429;51.074;13.764;2022-11-15T15:00:18;28.67;;;16.88;;
43801;SDS011;29429;51.074;13.764;2022-11-15T15:02:46;28.40;;;16.25;;
43801;SDS011;29429;51.074;13.764;2022-11-15T15:05:29;27.55;;;16.45;;
43801;SDS011;29429;51.074;13.764;2022-11-15T15:08:01;24.67;;;14.70;;
43801;SDS011;29429;51.074;13.764;2022-11-15T15:10:30;31.60;;;17.38;;
43801;SDS011;29429;51.074;13.764;2022-11-15T15:13:10;26.73;;;16.52;;
43801;SDS011;29429;51.074;13.764;2022-11-15T15:15:48;28.95;;;16.73;;
43801;SDS011;29429;51.074;13.764;2022-11-15T15:18:17;26.55;;;16.10;;
43801;SDS011;29429;51.074;13.764;2022-11-15T15:21:00;29.33;;;16.63;;
43801;SDS011;29429;51.074;13.764;2022-11-15T15:24:13;36.63;;;18.77;;
43801;SDS011;29429;51.074;13.764;2022-11-15T15:26:41;31.58;;;19.17;;
43801;SDS011;29429;51.074;13.764;2022-11-15T15:29:09;31.42;;;18.15;;
43801;SDS011;29429;51.074;13.764;2022-11-15T15:31:36;34.13;;;19.65;;
43801;SDS011;29429;51.074;13.764;2022-11-15T15:34:03;27.38;;;16.83;;
43801;SDS011;29429;51.074;13.764;2022-11-15T15:36:31;31.60;;;18.45;;
43801;SDS011;29429;51.074;13.764;2022-11-15T15:38:58;34.05;;;18.65;;
43801;SDS011;29429;51.074;13.764;2022-11-15T15:41:25;35.22;;;20.50;;
43801;SDS011;29429;51.074;13.764;2022-11-15T15:43:52;32.13;;;18.20;;
43801;SDS011;29429;51.074;13.764;2022-11-15T15:46:19;31.45;;;18.40;;
43801;SDS011;29429;51.074;13.764;2022-11-15T15:48:46;29.05;;;18.05;;
43801;SDS011;29429;51.074;13.764;2022-11-15T15:51:14;29.88;;;17.10;;
43801;SDS011;29429;51.074;13.764;2022-11-15T15:53:46;30.45;;;16.65;;
43801;SDS011;29429;51.074;13.764;2022-11-15T15:56:14;34.40;;;18.42;;
43801;SDS011;29429;51.074;13.764;2022-11-15T15:58:41;33.00;;;17.52;;
43801;SDS011;29429;51.074;13.764;2022-11-15T16:01:08;32.60;;;18.80;;
43801;SDS011;29429;51.074;13.764;2022-11-15T16:03:38;30.77;;;17.75;;
43801;SDS011;29429;51.074;13.764;2022-11-15T16:06:22;32.25;;;18.17;;
43801;SDS011;29429;51.074;13.764;2022-11-15T16:09:05;30.00;;;17.58;;
43801;SDS011;29429;51.074;13.764;2022-11-15T16:11:44;35.38;;;18.40;;
43801;SDS011;29429;51.074;13.764;2022-11-15T16:14:15;31.77;;;18.33;;
43801;SDS011;29429;51.074;13.764;2022-11-15T16:20:48;31.58;;;16.65;;
43801;SDS011;29429;51.074;13.764;2022-11-15T16:23:39;37.13;;;20.08;;
43801;SDS011;29429;51.074;13.764;2022-11-15T16:27:22;32.13;;;17.77;;
43801;SDS011;29429;51.074;13.764;2022-11-15T16:34:19;34.03;;;19.60;;
43801;SDS011;29429;51.074;13.764;2022-11-15T16:43:05;35.85;;;19.67;;
43801;SDS011;29429;51.074;13.764;2022-11-15T16:45:33;34.85;;;19.58;;
43801;SDS011;29429;51.074;13.764;2022-11-15T16:48:01;37.47;;;22.30;;
43801;SDS011;29429;51.074;13.764;2022-11-15T16:50:33;38.53;;;20.85;;
43801;SDS011;29429;51.074;13.764;2022-11-15T16:53:06;37.30;;;21.17;;
43801;SDS011;29429;51.074;13.764;2022-11-15T16:55:34;37.35;;;20.60;;
43801;SDS011;29429;51.074;13.764;2022-11-15T16:58:00;37.40;;;21.88;;
43801;SDS011;29429;51.074;13.764;2022-11-15T17:00:27;32.53;;;17.85;;
43801;SDS011;29429;51.074;13.764;2022-11-15T17:02:54;35.80;;;19.60;;
43801;SDS011;29429;51.074;13.764;2022-11-15T17:05:23;39.42;;;21.75;;
43801;SDS011;29429;51.074;13.764;2022-11-15T17:07:52;39.42;;;21.42;;
43801;SDS011;29429;51.074;13.764;2022-11-15T17:10:20;37.92;;;20.40;;
43801;SDS011;29429;51.074;13.764;2022-11-15T17:12:51;37.17;;;20.83;;
43801;SDS011;29429;51.074;13.764;2022-11-15T17:15:22;40.22;;;21.45;;
43801;SDS011;29429;51.074;13.764;2022-11-15T17:17:53;36.28;;;19.80;;
43801;SDS011;29429;51.074;13.764;2022-11-15T17:20:21;36.58;;;18.63;;
43801;SDS011;29429;51.074;13.764;2022-11-15T17:22:50;38.05;;;21.42;;
43801;SDS011;29429;51.074;13.764;2022-11-15T17:25:18;38.00;;;21.10;;
43801;SDS011;29429;51.074;13.764;2022-11-15T17:27:45;35.33;;;20.40;;
43801;SDS011;29429;51.074;13.764;2022-11-15T17:30:13;39.75;;;20.90;;
43801;SDS011;29429;51.074;13.764;2022-11-15T17:32:41;39.45;;;20.63;;
43801;SDS011;29429;51.074;13.764;2022-11-15T17:35:09;40.45;;;20.50;;
43801;SDS011;29429;51.074;13.764;2022-11-15T17:37:41;36.78;;;19.80;;
43801;SDS011;29429;51.074;13.764;2022-11-15T17:40:08;36.67;;;20.85;;
43801;SDS011;29429;51.074;13.764;2022-11-15T17:42:39;39.28;;;22.05;;
43801;SDS011;29429;51.074;13.764;2022-11-15T17:45:07;41.80;;;21.55;;
43801;SDS011;29429;51.074;13.764;2022-11-15T17:47:36;41.83;;;20.90;;
43801;SDS011;29429;51.074;13.764;2022-11-15T17:50:04;37.28;;;20.58;;
43801;SDS011;29429;51.074;13.764;2022-11-15T17:52:31;38.63;;;20.50;;
43801;SDS011;29429;51.074;13.764;2022-11-15T17:54:59;37.25;;;20.00;;
43801;SDS011;29429;51.074;13.764;2022-11-15T17:57:25;39.20;;;20.70;;
43801;SDS011;29429;51.074;13.764;2022-11-15T17:59:52;42.17;;;22.08;;
43801;SDS011;29429;51.074;13.764;2022-11-15T18:02:19;39.10;;;21.27;;
43801;SDS011;29429;51.074;13.764;2022-11-15T18:04:46;40.28;;;21.08;;
43801;SDS011;29429;51.074;13.764;2022-11-15T18:07:13;35.40;;;18.75;;
43801;SDS011;29429;51.074;13.764;2022-11-15T18:09:41;39.28;;;20.42;;
43801;SDS011;29429;51.074;13.764;2022-11-15T18:12:10;38.25;;;21.08;;
43801;SDS011;29429;51.074;13.764;2022-11-15T18:14:37;38.25;;;21.77;;
43801;SDS011;29429;51.074;13.764;2022-11-15T18:17:04;35.03;;;19.38;;
43801;SDS011;29429;51.074;13.764;2022-11-15T18:19:31;32.30;;;19.48;;
43801;SDS011;29429;51.074;13.764;2022-11-15T18:21:59;35.40;;;20.13;;
43801;SDS011;29429;51.074;13.764;2022-11-15T18:24:31;40.45;;;20.77;;
43801;SDS011;29429;51.074;13.764;2022-11-15T18:27:00;36.00;;;19.75;;
43801;SDS011;29429;51.074;13.764;2022-11-15T18:29:30;42.00;;;22.45;;
43801;SDS011;29429;51.074;13.764;2022-11-15T18:32:02;43.40;;;22.30;;
43801;SDS011;29429;51.074;13.764;2022-11-15T18:34:36;42.42;;;21.77;;
43801;SDS011;29429;51.074;13.764;2022-11-15T18:37:04;44.30;;;22.85;;
43801;SDS011;29429;51.074;13.764;2022-11-15T18:42:27;44.80;;;21.45;;
43801;SDS011;29429;51.074;13.764;2022-11-15T18:44:58;39.97;;;22.45;;
43801;SDS011;29429;51.074;13.764;2022-11-15T18:47:25;41.47;;;21.48;;
43801;SDS011;29429;51.074;13.764;2022-11-15T18:49:52;44.47;;;21.70;;
43801;SDS011;29429;51.074;13.764;2022-11-15T18:52:19;41.40;;;22.25;;
43801;SDS011;29429;51.074;13.764;2022-11-15T18:54:46;40.05;;;20.65;;
43801;SDS011;29429;51.074;13.764;2022-11-15T18:57:13;38.30;;;20.65;;
43801;SDS011;29429;51.074;13.764;2022-11-15T18:59:40;43.63;;;23.13;;